sensor_id;sensor_type;location;lat;lon;timestamp;pressure;altitude;pressure_sealevel;temperature;humidity
78909;BME280;68298;37.368;127.108;2023-04-25T00:01:26;100768.06;;;17.92;37.50
78909;BME280;68298;37.368;127.108;2023-04-25T00:03:56;100761.03;;;17.93;38.30
78909;BME280;68298;37.368;127.108;2023-04-25T00:06:27;100754.03;;;17.93;38.21
78909;BME280;68298;37.368;127.108;2023-04-25T00:08:59;100749.63;;;17.94;38.01
78909;BME280;68298;37.368;127.108;2023-04-25T00:11:30;100753.84;;;17.97;38.12
78909;BME280;68298;37.368;127.108;2023-04-25T00:14:01;100752.13;;;17.95;38.49
78909;BME280;68298;37.368;127.108;2023-04-25T00:16:32;100758.19;;;17.96;37.77
78909;BME280;68298;37.368;127.108;2023-04-25T00:19:04;100752.13;;;17.95;38.75
78909;BME280;68298;37.368;127.108;2023-04-25T00:21:34;100752.97;;;17.96;38.04
78909;BME280;68298;37.368;127.108;2023-04-25T00:24:07;100754.75;;;17.95;38.38
78909;BME280;68298;37.368;127.108;2023-04-25T00:26:39;100753.19;;;17.93;38.49
78909;BME280;68298;37.368;127.108;2023-04-25T00:29:09;100754.03;;;17.93;37.81
78909;BME280;68298;37.368;127.108;2023-04-25T00:31:40;100755.81;;;17.93;38.30
78909;BME280;68298;37.368;127.108;2023-04-25T00:34:11;100747.09;;;17.92;38.09
78909;BME280;68298;37.368;127.108;2023-04-25T00:36:41;100748.03;;;17.91;37.71
78909;BME280;68298;37.368;127.108;2023-04-25T00:39:12;100753.25;;;17.91;37.58
78909;BME280;68298;37.368;127.108;2023-04-25T00:41:43;100748.97;;;17.90;37.23
78909;BME280;68298;37.368;127.108;2023-04-25T00:44:15;100755.16;;;17.89;37.21
78909;BME280;68298;37.368;127.108;2023-04-25T00:46:47;100765.53;;;17.91;37.12
78909;BME280;68298;37.368;127.108;2023-04-25T00:49:19;100760.41;;;17.89;36.97
78909;BME280;68298;37.368;127.108;2023-04-25T00:51:49;100762.19;;;17.89;37.12
78909;BME280;68298;37.368;127.108;2023-04-25T00:54:20;100754.31;;;17.89;36.67
78909;BME280;68298;37.368;127.108;2023-04-25T00:56:51;100765.63;;;17.89;37.12
78909;BME280;68298;37.368;127.108;2023-04-25T00:59:22;100768.38;;;17.88;36.63
78909;BME280;68298;37.368;127.108;2023-04-25T01:01:52;100757.88;;;17.88;37.08
78909;BME280;68298;37.368;127.108;2023-04-25T01:04:23;100769.22;;;17.88;36.38
78909;BME280;68298;37.368;127.108;2023-04-25T01:06:54;100766.66;;;17.87;37.29
78909;BME280;68298;37.368;127.108;2023-04-25T01:09:26;100762.28;;;17.87;37.03
78909;BME280;68298;37.368;127.108;2023-04-25T01:11:56;100765.00;;;17.86;37.33
78909;BME280;68298;37.368;127.108;2023-04-25T01:14:27;100763.31;;;17.85;36.94
78909;BME280;68298;37.368;127.108;2023-04-25T01:16:59;100767.63;;;17.86;36.51
78909;BME280;68298;37.368;127.108;2023-04-25T01:19:30;100765.94;;;17.85;37.36
78909;BME280;68298;37.368;127.108;2023-04-25T01:22:00;100760.69;;;17.85;37.21
78909;BME280;68298;37.368;127.108;2023-04-25T01:24:32;100771.19;;;17.85;36.48
78909;BME280;68298;37.368;127.108;2023-04-25T01:27:03;100765.09;;;17.84;36.94
78909;BME280;68298;37.368;127.108;2023-04-25T01:29:35;100757.25;;;17.84;36.35
78909;BME280;68298;37.368;127.108;2023-04-25T01:32:06;100753.78;;;17.84;37.02
78909;BME280;68298;37.368;127.108;2023-04-25T01:34:39;100747.69;;;17.83;36.56
78909;BME280;68298;37.368;127.108;2023-04-25T01:37:09;100749.56;;;17.81;36.60
78909;BME280;68298;37.368;127.108;2023-04-25T01:39:40;100747.78;;;17.82;37.16
78909;BME280;68298;37.368;127.108;2023-04-25T01:42:12;100734.69;;;17.82;37.22
78909;BME280;68298;37.368;127.108;2023-04-25T01:44:43;100732.06;;;17.82;37.15
78909;BME280;68298;37.368;127.108;2023-04-25T01:47:14;100724.31;;;17.80;37.29
78909;BME280;68298;37.368;127.108;2023-04-25T01:49:45;100714.66;;;17.81;37.03
78909;BME280;68298;37.368;127.108;2023-04-25T01:52:16;100717.28;;;17.81;36.63
78909;BME280;68298;37.368;127.108;2023-04-25T01:54:47;100723.47;;;17.80;36.77
78909;BME280;68298;37.368;127.108;2023-04-25T01:57:18;100712.16;;;17.79;36.76
78909;BME280;68298;37.368;127.108;2023-04-25T01:59:49;100702.63;;;17.78;38.37
78909;BME280;68298;37.368;127.108;2023-04-25T02:02:38;100707.03;;;17.78;38.23
78909;BME280;68298;37.368;127.108;2023-04-25T02:05:28;100702.69;;;17.77;39.32
78909;BME280;68298;37.368;127.108;2023-04-25T02:08:08;100709.63;;;17.78;38.68
78909;BME280;68298;37.368;127.108;2023-04-25T02:10:38;100702.63;;;17.78;38.66
78909;BME280;68298;37.368;127.108;2023-04-25T02:13:18;100698.28;;;17.77;39.17
78909;BME280;68298;37.368;127.108;2023-04-25T02:16:14;100684.34;;;17.77;39.26
78909;BME280;68298;37.368;127.108;2023-04-25T02:18:45;100679.09;;;17.77;39.45
78909;BME280;68298;37.368;127.108;2023-04-25T02:21:16;100679.94;;;17.77;39.69
78909;BME280;68298;37.368;127.108;2023-04-25T02:23:47;100672.94;;;17.78;39.39
78909;BME280;68298;37.368;127.108;2023-04-25T02:26:20;100675.56;;;17.78;39.55
78909;BME280;68298;37.368;127.108;2023-04-25T02:28:51;100666.84;;;17.77;39.81
78909;BME280;68298;37.368;127.108;2023-04-25T02:31:21;100672.94;;;17.78;39.63
78909;BME280;68298;37.368;127.108;2023-04-25T02:33:52;100670.41;;;17.76;40.03
78909;BME280;68298;37.368;127.108;2023-04-25T02:36:22;100667.78;;;17.76;40.01
78909;BME280;68298;37.368;127.108;2023-04-25T02:39:18;100657.41;;;17.75;39.84
78909;BME280;68298;37.368;127.108;2023-04-25T02:41:49;100640.03;;;17.74;39.72
78909;BME280;68298;37.368;127.108;2023-04-25T02:44:21;100640.88;;;17.74;39.83
78909;BME280;68298;37.368;127.108;2023-04-25T02:47:05;100637.28;;;17.75;39.07
78909;BME280;68298;37.368;127.108;2023-04-25T02:49:36;100628.59;;;17.75;38.96
78909;BME280;68298;37.368;127.108;2023-04-25T02:52:06;100628.59;;;17.75;39.61
78909;BME280;68298;37.368;127.108;2023-04-25T02:54:37;100610.25;;;17.75;39.04
78909;BME280;68298;37.368;127.108;2023-04-25T02:57:09;100598.94;;;17.74;39.12
78909;BME280;68298;37.368;127.108;2023-04-25T02:59:39;100593.69;;;17.74;39.18
78909;BME280;68298;37.368;127.108;2023-04-25T03:02:10;100591.09;;;17.74;39.10
78909;BME280;68298;37.368;127.108;2023-04-25T03:04:41;100600.72;;;17.74;38.25
78909;BME280;68298;37.368;127.108;2023-04-25T03:07:11;100584.16;;;17.73;39.17
78909;BME280;68298;37.368;127.108;2023-04-25T03:09:42;100589.41;;;17.73;38.42
78909;BME280;68298;37.368;127.108;2023-04-25T03:12:12;100582.38;;;17.74;38.63
78909;BME280;68298;37.368;127.108;2023-04-25T03:14:43;100580.69;;;17.73;38.28
78909;BME280;68298;37.368;127.108;2023-04-25T03:17:15;100581.59;;;17.72;40.12
78909;BME280;68298;37.368;127.108;2023-04-25T03:19:47;100580.69;;;17.73;40.58
78909;BME280;68298;37.368;127.108;2023-04-25T03:22:18;100573.56;;;17.75;40.20
78909;BME280;68298;37.368;127.108;2023-04-25T03:24:49;100556.91;;;17.76;40.83
78909;BME280;68298;37.368;127.108;2023-04-25T03:27:20;100542.84;;;17.77;40.58
78909;BME280;68298;37.368;127.108;2023-04-25T03:29:51;100551.47;;;17.79;40.81
78909;BME280;68298;37.368;127.108;2023-04-25T03:32:21;100555.75;;;17.80;40.88
78909;BME280;68298;37.368;127.108;2023-04-25T03:34:52;100549.56;;;17.81;42.01
78909;BME280;68298;37.368;127.108;2023-04-25T03:37:25;100539.09;;;17.81;42.27
78909;BME280;68298;37.368;127.108;2023-04-25T03:39:56;100541.50;;;17.84;42.07
78909;BME280;68298;37.368;127.108;2023-04-25T03:42:38;100523.16;;;17.84;42.67
78909;BME280;68298;37.368;127.108;2023-04-25T03:45:12;100520.44;;;17.85;42.77
78909;BME280;68298;37.368;127.108;2023-04-25T03:47:43;100512.56;;;17.85;42.93
78909;BME280;68298;37.368;127.108;2023-04-25T03:50:14;100493.28;;;17.86;42.19
78909;BME280;68298;37.368;127.108;2023-04-25T03:52:45;100489.72;;;17.87;42.93
78909;BME280;68298;37.368;127.108;2023-04-25T03:55:16;100487.94;;;17.88;42.83
78909;BME280;68298;37.368;127.108;2023-04-25T03:57:46;100484.38;;;17.89;42.19
78909;BME280;68298;37.368;127.108;2023-04-25T04:00:18;100482.38;;;17.92;42.33
78909;BME280;68298;37.368;127.108;2023-04-25T04:02:52;100485.09;;;17.91;42.95
78909;BME280;68298;37.368;127.108;2023-04-25T04:05:23;100481.56;;;17.92;42.86
78909;BME280;68298;37.368;127.108;2023-04-25T04:07:56;100474.53;;;17.92;43.62
78909;BME280;68298;37.368;127.108;2023-04-25T04:10:27;100465.59;;;17.95;43.28
78909;BME280;68298;37.368;127.108;2023-04-25T04:12:58;100460.47;;;17.93;43.35
78909;BME280;68298;37.368;127.108;2023-04-25T04:15:29;100452.59;;;17.93;43.90
78909;BME280;68298;37.368;127.108;2023-04-25T04:18:02;100462.00;;;17.96;43.41
78909;BME280;68298;37.368;127.108;2023-04-25T04:20:33;100458.56;;;17.95;43.77
78909;BME280;68298;37.368;127.108;2023-04-25T04:23:03;100448.91;;;17.96;43.79
78909;BME280;68298;37.368;127.108;2023-04-25T04:25:35;100441.03;;;17.96;44.03
78909;BME280;68298;37.368;127.108;2023-04-25T04:28:52;100442.84;;;17.95;44.15
78909;BME280;68298;37.368;127.108;2023-04-25T04:31:45;100442.75;;;17.97;44.83
78909;BME280;68298;37.368;127.108;2023-04-25T04:34:16;100440.13;;;17.97;44.25
78909;BME280;68298;37.368;127.108;2023-04-25T04:36:48;100430.56;;;17.96;44.36
78909;BME280;68298;37.368;127.108;2023-04-25T04:39:20;100434.06;;;17.97;44.02
78909;BME280;68298;37.368;127.108;2023-04-25T04:42:10;100431.44;;;17.97;44.12
78909;BME280;68298;37.368;127.108;2023-04-25T04:45:04;100426.06;;;17.98;44.36
78909;BME280;68298;37.368;127.108;2023-04-25T04:47:45;100422.50;;;17.99;44.34
78909;BME280;68298;37.368;127.108;2023-04-25T04:50:35;100410.22;;;18.00;44.18
78909;BME280;68298;37.368;127.108;2023-04-25T04:53:05;100403.19;;;18.00;44.36
78909;BME280;68298;37.368;127.108;2023-04-25T04:55:46;100399.78;;;18.11;44.31
78909;BME280;68298;37.368;127.108;2023-04-25T04:58:46;100390.25;;;18.10;44.38
78909;BME280;68298;37.368;127.108;2023-04-25T05:01:41;100395.41;;;18.11;44.76
78909;BME280;68298;37.368;127.108;2023-04-25T05:04:35;100393.00;;;18.08;44.73
78909;BME280;68298;37.368;127.108;2023-04-25T05:07:20;100395.97;;;18.04;44.44
78909;BME280;68298;37.368;127.108;2023-04-25T05:10:25;100390.09;;;18.00;44.79
78909;BME280;68298;37.368;127.108;2023-04-25T05:13:35;100377.09;;;17.99;44.83
78909;BME280;68298;37.368;127.108;2023-04-25T05:16:37;100373.66;;;17.98;45.11
78909;BME280;68298;37.368;127.108;2023-04-25T05:19:23;100370.19;;;17.98;45.76
78909;BME280;68298;37.368;127.108;2023-04-25T05:22:30;100363.28;;;17.97;45.75
78909;BME280;68298;37.368;127.108;2023-04-25T05:25:12;100353.72;;;17.95;45.04
78909;BME280;68298;37.368;127.108;2023-04-25T05:28:01;100348.47;;;17.95;45.75
78909;BME280;68298;37.368;127.108;2023-04-25T05:30:50;100341.56;;;17.94;45.97
78909;BME280;68298;37.368;127.108;2023-04-25T05:33:27;100337.16;;;17.95;45.32
78909;BME280;68298;37.368;127.108;2023-04-25T05:35:59;100331.91;;;17.95;45.54
78909;BME280;68298;37.368;127.108;2023-04-25T05:38:33;100324.06;;;17.95;45.87
78909;BME280;68298;37.368;127.108;2023-04-25T05:41:22;100315.47;;;17.93;45.10
78909;BME280;68298;37.368;127.108;2023-04-25T05:44:00;100317.28;;;17.92;44.95
78909;BME280;68298;37.368;127.108;2023-04-25T05:46:53;100312.88;;;17.93;45.60
78909;BME280;68298;37.368;127.108;2023-04-25T05:49:55;100305.09;;;17.91;45.52
78909;BME280;68298;37.368;127.108;2023-04-25T05:52:57;100292.84;;;17.92;45.85
78909;BME280;68298;37.368;127.108;2023-04-25T05:55:31;100278.78;;;17.93;45.99
78909;BME280;68298;37.368;127.108;2023-04-25T05:58:16;100274.50;;;17.92;45.20
78909;BME280;68298;37.368;127.108;2023-04-25T06:00:47;100276.25;;;17.91;45.90
78909;BME280;68298;37.368;127.108;2023-04-25T06:03:18;100269.25;;;17.92;45.31
78909;BME280;68298;37.368;127.108;2023-04-25T06:05:53;100263.06;;;17.93;45.38
78909;BME280;68298;37.368;127.108;2023-04-25T06:08:24;100247.44;;;17.91;45.18
78909;BME280;68298;37.368;127.108;2023-04-25T06:10:54;100246.59;;;17.91;45.47
78909;BME280;68298;37.368;127.108;2023-04-25T06:13:25;100247.44;;;17.91;44.76
78909;BME280;68298;37.368;127.108;2023-04-25T06:15:56;100257.91;;;17.91;44.98
78909;BME280;68298;37.368;127.108;2023-04-25T06:18:27;100247.56;;;17.90;45.25
78909;BME280;68298;37.368;127.108;2023-04-25T06:20:58;100246.72;;;17.89;44.26
78909;BME280;68298;37.368;127.108;2023-04-25T06:23:28;100236.25;;;17.89;44.95
78909;BME280;68298;37.368;127.108;2023-04-25T06:26:04;100238.03;;;17.89;44.29
78909;BME280;68298;37.368;127.108;2023-04-25T06:28:38;100234.56;;;17.88;44.69
78909;BME280;68298;37.368;127.108;2023-04-25T06:31:09;100230.16;;;17.89;43.76
78909;BME280;68298;37.368;127.108;2023-04-25T06:33:42;100228.38;;;17.89;44.67
78909;BME280;68298;37.368;127.108;2023-04-25T06:36:13;100218.84;;;17.88;44.40
78909;BME280;68298;37.368;127.108;2023-04-25T06:38:47;100211.94;;;17.87;44.06
78909;BME280;68298;37.368;127.108;2023-04-25T06:41:18;100203.22;;;17.87;44.64
78909;BME280;68298;37.368;127.108;2023-04-25T06:43:50;100205.00;;;17.86;43.98
78909;BME280;68298;37.368;127.108;2023-04-25T06:46:35;100200.59;;;17.87;44.30
78909;BME280;68298;37.368;127.108;2023-04-25T06:49:06;100198.94;;;17.86;43.47
78909;BME280;68298;37.368;127.108;2023-04-25T06:51:38;100198.94;;;17.86;43.72
78909;BME280;68298;37.368;127.108;2023-04-25T06:54:08;100190.25;;;17.85;43.27
78909;BME280;68298;37.368;127.108;2023-04-25T06:56:48;100192.84;;;17.85;43.85
78909;BME280;68298;37.368;127.108;2023-04-25T06:59:18;100195.47;;;17.85;43.37
78909;BME280;68298;37.368;127.108;2023-04-25T07:01:50;100192.84;;;17.85;43.91
78909;BME280;68298;37.368;127.108;2023-04-25T07:04:25;100197.38;;;17.83;43.35
78909;BME280;68298;37.368;127.108;2023-04-25T07:06:58;100188.56;;;17.84;43.40
78909;BME280;68298;37.368;127.108;2023-04-25T07:09:52;100194.66;;;17.85;43.31
78909;BME280;68298;37.368;127.108;2023-04-25T07:12:23;100185.13;;;17.84;43.72
78909;BME280;68298;37.368;127.108;2023-04-25T07:14:54;100185.13;;;17.84;43.37
78909;BME280;68298;37.368;127.108;2023-04-25T07:17:24;100192.97;;;17.84;43.00
78909;BME280;68298;37.368;127.108;2023-04-25T07:19:55;100185.25;;;17.82;42.64
78909;BME280;68298;37.368;127.108;2023-04-25T07:22:26;100186.91;;;17.83;42.96
78909;BME280;68298;37.368;127.108;2023-04-25T07:24:57;100188.69;;;17.83;42.55
78909;BME280;68298;37.368;127.108;2023-04-25T07:27:29;100181.75;;;17.82;42.71
78909;BME280;68298;37.368;127.108;2023-04-25T07:30:09;100187.97;;;17.81;43.53
78909;BME280;68298;37.368;127.108;2023-04-25T07:32:40;100187.13;;;17.80;42.71
78909;BME280;68298;37.368;127.108;2023-04-25T07:35:11;100187.13;;;17.80;43.18
78909;BME280;68298;37.368;127.108;2023-04-25T07:37:42;100180.22;;;17.79;42.91
78909;BME280;68298;37.368;127.108;2023-04-25T07:40:15;100177.59;;;17.79;42.29
78909;BME280;68298;37.368;127.108;2023-04-25T07:42:51;100182.00;;;17.79;42.22
78909;BME280;68298;37.368;127.108;2023-04-25T07:45:28;100182.97;;;17.78;42.84
78909;BME280;68298;37.368;127.108;2023-04-25T07:47:59;100179.47;;;17.77;42.40
78909;BME280;68298;37.368;127.108;2023-04-25T07:50:32;100183.88;;;17.77;42.52
78909;BME280;68298;37.368;127.108;2023-04-25T07:53:02;100174.25;;;17.77;42.33
78909;BME280;68298;37.368;127.108;2023-04-25T07:55:40;100167.34;;;17.76;42.28
78909;BME280;68298;37.368;127.108;2023-04-25T07:58:18;100163.88;;;17.76;42.09
78909;BME280;68298;37.368;127.108;2023-04-25T08:00:56;100169.97;;;17.76;42.75
78909;BME280;68298;37.368;127.108;2023-04-25T08:03:35;100179.59;;;17.76;42.04
78909;BME280;68298;37.368;127.108;2023-04-25T08:06:13;100165.78;;;17.74;42.36
78909;BME280;68298;37.368;127.108;2023-04-25T08:09:00;100163.19;;;17.74;42.36
78909;BME280;68298;37.368;127.108;2023-04-25T08:11:37;100158.78;;;17.74;42.67
78909;BME280;68298;37.368;127.108;2023-04-25T08:14:11;100173.66;;;17.74;42.35
78909;BME280;68298;37.368;127.108;2023-04-25T08:16:43;100171.09;;;17.72;42.71
78909;BME280;68298;37.368;127.108;2023-04-25T08:19:13;100169.34;;;17.73;41.70
78909;BME280;68298;37.368;127.108;2023-04-25T08:21:45;100166.72;;;17.73;42.47
78909;BME280;68298;37.368;127.108;2023-04-25T08:24:21;100167.66;;;17.72;42.40
78909;BME280;68298;37.368;127.108;2023-04-25T08:26:52;100164.19;;;17.71;42.64
78909;BME280;68298;37.368;127.108;2023-04-25T08:29:27;100166.09;;;17.69;41.64
78909;BME280;68298;37.368;127.108;2023-04-25T08:31:58;100166.09;;;17.69;41.74
78909;BME280;68298;37.368;127.108;2023-04-25T08:34:29;100161.81;;;17.68;41.43
78909;BME280;68298;37.368;127.108;2023-04-25T08:37:03;100162.66;;;17.68;41.86
78909;BME280;68298;37.368;127.108;2023-04-25T08:39:43;100161.81;;;17.68;42.35
78909;BME280;68298;37.368;127.108;2023-04-25T08:42:33;100150.47;;;17.67;42.11
78909;BME280;68298;37.368;127.108;2023-04-25T08:45:06;100151.44;;;17.66;42.03
78909;BME280;68298;37.368;127.108;2023-04-25T08:47:39;100152.38;;;17.65;41.41
78909;BME280;68298;37.368;127.108;2023-04-25T08:50:11;100162.03;;;17.65;42.13
78909;BME280;68298;37.368;127.108;2023-04-25T08:52:45;100161.19;;;17.64;42.20
78909;BME280;68298;37.368;127.108;2023-04-25T08:55:18;100156.91;;;17.63;41.25
78909;BME280;68298;37.368;127.108;2023-04-25T08:57:55;100152.50;;;17.64;42.52
78909;BME280;68298;37.368;127.108;2023-04-25T09:00:26;100149.06;;;17.63;41.95
78909;BME280;68298;37.368;127.108;2023-04-25T09:02:58;100149.06;;;17.63;41.70
78909;BME280;68298;37.368;127.108;2023-04-25T09:05:35;100153.44;;;17.63;42.38
78909;BME280;68298;37.368;127.108;2023-04-25T09:08:07;100154.38;;;17.62;42.06
78909;BME280;68298;37.368;127.108;2023-04-25T09:10:38;100146.53;;;17.62;41.93
78909;BME280;68298;37.368;127.108;2023-04-25T09:13:12;100143.06;;;17.61;42.29
78909;BME280;68298;37.368;127.108;2023-04-25T09:16:02;100144.03;;;17.60;41.63
78909;BME280;68298;37.368;127.108;2023-04-25T09:18:41;100142.38;;;17.59;42.04
78909;BME280;68298;37.368;127.108;2023-04-25T09:21:16;100143.19;;;17.60;41.19
78909;BME280;68298;37.368;127.108;2023-04-25T09:23:49;100144.16;;;17.59;41.44
78909;BME280;68298;37.368;127.108;2023-04-25T09:26:21;100139.84;;;17.58;41.89
78909;BME280;68298;37.368;127.108;2023-04-25T09:29:06;100149.47;;;17.57;41.85
78909;BME280;68298;37.368;127.108;2023-04-25T09:31:40;100150.31;;;17.58;41.52
78909;BME280;68298;37.368;127.108;2023-04-25T09:34:12;100149.47;;;17.57;41.72
78909;BME280;68298;37.368;127.108;2023-04-25T09:36:54;100142.59;;;17.56;40.93
78909;BME280;68298;37.368;127.108;2023-04-25T09:39:45;100137.34;;;17.56;40.96
78909;BME280;68298;37.368;127.108;2023-04-25T09:42:18;100122.59;;;17.55;41.36
78909;BME280;68298;37.368;127.108;2023-04-25T09:44:53;100125.22;;;17.55;41.66
78909;BME280;68298;37.368;127.108;2023-04-25T09:47:26;100127.00;;;17.55;41.21
78909;BME280;68298;37.368;127.108;2023-04-25T09:49:57;100127.94;;;17.54;41.14
78909;BME280;68298;37.368;127.108;2023-04-25T09:52:28;100138.41;;;17.54;41.89
78909;BME280;68298;37.368;127.108;2023-04-25T09:55:11;100134.09;;;17.53;41.40
78909;BME280;68298;37.368;127.108;2023-04-25T09:57:45;100124.47;;;17.53;41.57
78909;BME280;68298;37.368;127.108;2023-04-25T10:00:19;100128.03;;;17.52;41.18
78909;BME280;68298;37.368;127.108;2023-04-25T10:02:52;100128.03;;;17.52;42.33
78909;BME280;68298;37.368;127.108;2023-04-25T10:05:43;100128.16;;;17.51;41.46
78909;BME280;68298;37.368;127.108;2023-04-25T10:08:14;100125.53;;;17.51;42.07
78909;BME280;68298;37.368;127.108;2023-04-25T10:10:47;100131.72;;;17.50;41.47
78909;BME280;68298;37.368;127.108;2023-04-25T10:13:20;100136.13;;;17.49;41.29
78909;BME280;68298;37.368;127.108;2023-04-25T10:15:53;100133.53;;;17.49;41.84
78909;BME280;68298;37.368;127.108;2023-04-25T10:18:25;100133.53;;;17.49;42.15
78909;BME280;68298;37.368;127.108;2023-04-25T10:20:59;100139.69;;;17.48;41.87
78909;BME280;68298;37.368;127.108;2023-04-25T10:23:31;100138.84;;;17.48;41.15
78909;BME280;68298;37.368;127.108;2023-04-25T10:26:02;100130.16;;;17.47;41.43
78909;BME280;68298;37.368;127.108;2023-04-25T10:28:56;100132.91;;;17.46;41.80
78909;BME280;68298;37.368;127.108;2023-04-25T10:31:28;100134.56;;;17.47;41.20
78909;BME280;68298;37.368;127.108;2023-04-25T10:34:00;100140.75;;;17.46;41.30
78909;BME280;68298;37.368;127.108;2023-04-25T10:36:34;100138.25;;;17.44;41.70
78909;BME280;68298;37.368;127.108;2023-04-25T10:39:07;100133.03;;;17.44;41.56
78909;BME280;68298;37.368;127.108;2023-04-25T10:41:48;100138.25;;;17.44;41.07
78909;BME280;68298;37.368;127.108;2023-04-25T10:44:22;100138.25;;;17.44;41.94
78909;BME280;68298;37.368;127.108;2023-04-25T10:46:55;100138.34;;;17.42;41.09
78909;BME280;68298;37.368;127.108;2023-04-25T10:49:42;100149.66;;;17.43;40.86
78909;BME280;68298;37.368;127.108;2023-04-25T10:52:39;100148.81;;;17.42;41.59
78909;BME280;68298;37.368;127.108;2023-04-25T10:55:10;100148.00;;;17.42;41.30
78909;BME280;68298;37.368;127.108;2023-04-25T10:57:41;100128.00;;;17.41;41.12
78909;BME280;68298;37.368;127.108;2023-04-25T11:02:47;100131.56;;;17.40;41.73
78909;BME280;68298;37.368;127.108;2023-04-25T11:08:00;100140.34;;;17.39;41.24
78909;BME280;68298;37.368;127.108;2023-04-25T11:10:35;100136.81;;;17.40;41.18
78909;BME280;68298;37.368;127.108;2023-04-25T11:13:06;100129.03;;;17.38;40.88
78909;BME280;68298;37.368;127.108;2023-04-25T11:15:37;100132.50;;;17.39;41.62
78909;BME280;68298;37.368;127.108;2023-04-25T11:18:08;100142.25;;;17.37;41.90
78909;BME280;68298;37.368;127.108;2023-04-25T11:20:38;100137.84;;;17.37;41.28
78909;BME280;68298;37.368;127.108;2023-04-25T11:23:13;100142.25;;;17.37;41.36
78909;BME280;68298;37.368;127.108;2023-04-25T11:25:45;100139.75;;;17.35;41.13
78909;BME280;68298;37.368;127.108;2023-04-25T11:28:21;100138.94;;;17.35;41.25
78909;BME280;68298;37.368;127.108;2023-04-25T11:30:56;100138.09;;;17.34;41.70
78909;BME280;68298;37.368;127.108;2023-04-25T11:33:27;100143.34;;;17.34;41.57
78909;BME280;68298;37.368;127.108;2023-04-25T11:35:58;100140.72;;;17.34;41.73
78909;BME280;68298;37.368;127.108;2023-04-25T11:38:28;100164.28;;;17.34;41.38
78909;BME280;68298;37.368;127.108;2023-04-25T11:40:59;100146.03;;;17.33;41.40
78909;BME280;68298;37.368;127.108;2023-04-25T11:43:30;100143.44;;;17.33;41.63
78909;BME280;68298;37.368;127.108;2023-04-25T11:46:06;100164.38;;;17.33;42.15
78909;BME280;68298;37.368;127.108;2023-04-25T11:48:42;100165.31;;;17.32;41.50
78909;BME280;68298;37.368;127.108;2023-04-25T11:51:13;100162.69;;;17.32;41.96
78909;BME280;68298;37.368;127.108;2023-04-25T11:53:45;100167.09;;;17.31;41.12
78909;BME280;68298;37.368;127.108;2023-04-25T11:56:16;100150.56;;;17.31;41.07
78909;BME280;68298;37.368;127.108;2023-04-25T11:59:00;100173.31;;;17.30;41.76
78909;BME280;68298;37.368;127.108;2023-04-25T12:01:33;100176.00;;;17.29;41.84
78909;BME280;68298;37.368;127.108;2023-04-25T12:04:15;100180.31;;;17.30;40.95
78909;BME280;68298;37.368;127.108;2023-04-25T12:06:47;100179.47;;;17.29;41.88
78909;BME280;68298;37.368;127.108;2023-04-25T12:09:20;100181.25;;;17.29;41.88
78909;BME280;68298;37.368;127.108;2023-04-25T12:11:54;100177.78;;;17.28;40.97
78909;BME280;68298;37.368;127.108;2023-04-25T12:14:27;100185.66;;;17.28;41.65
78909;BME280;68298;37.368;127.108;2023-04-25T12:17:03;100181.38;;;17.27;41.13
78909;BME280;68298;37.368;127.108;2023-04-25T12:19:37;100180.53;;;17.27;42.17
78909;BME280;68298;37.368;127.108;2023-04-25T12:22:22;100196.25;;;17.27;41.56
78909;BME280;68298;37.368;127.108;2023-04-25T12:24:52;100194.56;;;17.26;41.54
78909;BME280;68298;37.368;127.108;2023-04-25T12:27:25;100193.75;;;17.25;42.05
78909;BME280;68298;37.368;127.108;2023-04-25T12:29:57;100189.34;;;17.26;41.34
78909;BME280;68298;37.368;127.108;2023-04-25T12:32:28;100200.63;;;17.26;41.75
78909;BME280;68298;37.368;127.108;2023-04-25T12:34:59;100193.75;;;17.25;41.84
78909;BME280;68298;37.368;127.108;2023-04-25T12:37:30;100188.50;;;17.25;41.78
78909;BME280;68298;37.368;127.108;2023-04-25T12:40:00;100179.78;;;17.25;41.65
78909;BME280;68298;37.368;127.108;2023-04-25T12:42:31;100180.75;;;17.24;41.68
78909;BME280;68298;37.368;127.108;2023-04-25T12:45:01;100184.19;;;17.24;41.70
78909;BME280;68298;37.368;127.108;2023-04-25T12:47:32;100193.81;;;17.24;42.05
78909;BME280;68298;37.368;127.108;2023-04-25T12:50:05;100202.63;;;17.23;42.13
78909;BME280;68298;37.368;127.108;2023-04-25T12:52:36;100206.09;;;17.23;41.49
78909;BME280;68298;37.368;127.108;2023-04-25T12:55:07;100201.78;;;17.22;42.17
78909;BME280;68298;37.368;127.108;2023-04-25T12:57:38;100207.03;;;17.22;42.01
78909;BME280;68298;37.368;127.108;2023-04-25T13:00:09;100206.19;;;17.22;42.17
78909;BME280;68298;37.368;127.108;2023-04-25T13:02:44;100200.97;;;17.22;41.44
78909;BME280;68298;37.368;127.108;2023-04-25T13:05:15;100212.38;;;17.21;41.44
78909;BME280;68298;37.368;127.108;2023-04-25T13:07:46;100212.38;;;17.21;41.96
78909;BME280;68298;37.368;127.108;2023-04-25T13:10:16;100212.38;;;17.21;42.08
78909;BME280;68298;37.368;127.108;2023-04-25T13:12:47;100206.31;;;17.20;41.82
78909;BME280;68298;37.368;127.108;2023-04-25T13:15:19;100208.94;;;17.20;41.79